FKYS

Details ICAO FKYS (NSI)
Name YAOUNDE NSIMALEN
Region Cameroon
Timezone Africa/Douala (UTC+1.0)
Plans Departing 122
Arriving 139
Stats Elevation 2,278 ft / 694 m (AMSL)
Location 3.722550° 11.553300°
Runways 1
Magnetic Variation 0.516° W
Sunrise 2019-05-25 05:02:52 UTC / 2019-05-25 06:02:52 Local
Sunset 2019-05-25 17:21:24 UTC / 2019-05-25 18:21:24 Local
Advertisement - Login to hide

Runways

ID Width Length Bearing (true/mag) Surface Threshold Overrun Markings Lighting
01 148 ft / 45 m 11,220 ft / 3,420 m 9.87° / 10.39° ASPHALT 0 ft / 0 m 200 ft / 61 m APP EDGE THRESHOLD
19 148 ft / 45 m 11,220 ft / 3,420 m 189.87° / 190.39° ASPHALT 0 ft / 0 m 200 ft / 61 m APP EDGE THRESHOLD MALS

Map

Weather


0- 5 10 15 20 25 30 35+ Temperature / °C

Clouds and Precipitation
Forecast for 2019-05-25 18:00 UTC. Updated 3 hours ago

Ground ~20,000 ft ~40,000 ft Winds

METAR

FKYS 251800Z 29005KT 240V320 9999 TS BKN016 FEW020CB 26/23 Q1014 TEMPO 4000 -TSRA

TAF

TAF FKYS 251700Z 2518/2618 26006KT 8000 BKN016 FEW020CB TEMPO 2518/2524 TS PROB30 TEMPO 2518/2524 3000 TSRA BECMG 2600/2602 BKN006 FEW020CB BECMG 2607/2609 BKN016

Frequencies

Tower 119.10 MHz
Approach 121.30 MHz
Warning: Do not use this data for real-world aviation or navigation. No guarantee of current accuracy is given.